Главная страница
METAR-TAF:

METAR-TAF

Аэропорты :

Нью-Хейвен, Коннектикут, США

широта: 41-15-50N, долгота: 072-53-14W, высота над уровнем моря: 4 м

Текущие метеонаблюдения

Эта сводка был подготовлена 14 минут назад, в 11:53 UTC
Штиль
Температура 14°C
Влажность 88%
Давление 1015 hPa
Видимость: 16.1 км
ясное небо

METAR: KHVN 241153Z 00000KT 10SM CLR 14/12 A2996 RMK AO2 SLP145 T01390122 10178 20106 51013

Время: 08:07 (12:07 UTC)


TAF: отсутствует

Метеонаблюдения и прогнозы для более 4000 аэропортов (сводки METAR и TAF).

Имеющиеся станции представлены на карте желтыми и красными точками.

Чтобы увидеть название станции, наведите на нее мышь.

Затем щелкните, чтобы увидеть метеонаблюдения и метеопрогнозы.

Управление картой: чтобы увеличить масштаб, щелкните зеленые кнопки с черным крестиком; чтобы уменьшить масштаб, щелкните зеленую кнопку с тире; для просмотра соседних карт щелкайте зеленые стрелки.


METAR-TAF: